KHDE/HDE METAR and TAF weather

Enter ICAO airport designator
Station Type Date Time Source
KHDE METAR 2018/12/15 22:55 UTC NOAA

KHDE 152255Z AUTO 19005KT 10SM CLR 05/00 A3007 RMK AO2 T00500000


Station Type Date Time Source
KHDE Decoded METAR 2018/12/15 22:55 UTC NOAA

Brewster Field Airport, NE, United States (KHDE) 40-27N 099-20W
Dec 15, 2018 - 05:55 PM EST / 2018.12.15 2255 UTC
Wind: from the S (190 degrees) at 6 MPH (5 KT):0
Visibility: 10 mile(s):0
Sky conditions: clear
Temperature: 41.0 F (5.0 C)
Dew Point: 32.0 F (0.0 C)
Relative Humidity: 70%
Pressure (altimeter): 30.07 in. Hg (1018 hPa)
ob: KHDE 152255Z AUTO 19005KT 10SM CLR 05/00 A3007 RMK AO2 T00500000
cycle: 23

Station Type Date Time Source
KHDE TAF UTC NOAA

Error!


Example: see airport list